sensor_id;sensor_type;location;lat;lon;timestamp;P1;durP1;ratioP1;P2;durP2;ratioP2
18296;SDS011;18066;52.106;5.534;2023-08-06T00:00:58;7.10;;;4.43;;
18296;SDS011;18066;52.106;5.534;2023-08-06T00:03:25;6.65;;;3.97;;
18296;SDS011;18066;52.106;5.534;2023-08-06T00:05:52;8.32;;;3.83;;
18296;SDS011;18066;52.106;5.534;2023-08-06T00:08:19;7.10;;;4.30;;
18296;SDS011;18066;52.106;5.534;2023-08-06T00:10:47;7.95;;;3.60;;
18296;SDS011;18066;52.106;5.534;2023-08-06T00:13:16;5.03;;;3.67;;
18296;SDS011;18066;52.106;5.534;2023-08-06T00:15:43;6.55;;;4.55;;
18296;SDS011;18066;52.106;5.534;2023-08-06T00:18:10;4.57;;;3.70;;
18296;SDS011;18066;52.106;5.534;2023-08-06T00:20:38;6.68;;;4.65;;
18296;SDS011;18066;52.106;5.534;2023-08-06T00:23:06;5.88;;;4.57;;
18296;SDS011;18066;52.106;5.534;2023-08-06T00:25:33;5.22;;;3.95;;
18296;SDS011;18066;52.106;5.534;2023-08-06T00:28:00;4.95;;;4.10;;
18296;SDS011;18066;52.106;5.534;2023-08-06T00:30:28;6.38;;;4.00;;
18296;SDS011;18066;52.106;5.534;2023-08-06T00:32:55;6.75;;;4.18;;
18296;SDS011;18066;52.106;5.534;2023-08-06T00:35:22;6.05;;;3.65;;
18296;SDS011;18066;52.106;5.534;2023-08-06T00:37:49;5.38;;;3.85;;
18296;SDS011;18066;52.106;5.534;2023-08-06T00:40:19;8.68;;;4.20;;
18296;SDS011;18066;52.106;5.534;2023-08-06T00:42:47;6.40;;;4.03;;
18296;SDS011;18066;52.106;5.534;2023-08-06T00:45:14;7.55;;;4.60;;
18296;SDS011;18066;52.106;5.534;2023-08-06T00:47:43;6.65;;;4.50;;
18296;SDS011;18066;52.106;5.534;2023-08-06T00:50:11;7.38;;;4.28;;
18296;SDS011;18066;52.106;5.534;2023-08-06T00:52:38;6.78;;;4.93;;
18296;SDS011;18066;52.106;5.534;2023-08-06T00:55:05;9.48;;;5.50;;
18296;SDS011;18066;52.106;5.534;2023-08-06T00:57:33;6.82;;;4.75;;
18296;SDS011;18066;52.106;5.534;2023-08-06T01:00:00;7.95;;;5.50;;
18296;SDS011;18066;52.106;5.534;2023-08-06T01:02:29;9.70;;;5.63;;
18296;SDS011;18066;52.106;5.534;2023-08-06T01:04:57;7.15;;;5.43;;
18296;SDS011;18066;52.106;5.534;2023-08-06T01:07:28;7.47;;;4.88;;
18296;SDS011;18066;52.106;5.534;2023-08-06T01:10:10;8.57;;;5.35;;
18296;SDS011;18066;52.106;5.534;2023-08-06T01:12:47;9.40;;;5.05;;
18296;SDS011;18066;52.106;5.534;2023-08-06T01:15:22;9.57;;;5.53;;
18296;SDS011;18066;52.106;5.534;2023-08-06T01:17:54;8.27;;;5.22;;
18296;SDS011;18066;52.106;5.534;2023-08-06T01:22:55;8.30;;;5.82;;
18296;SDS011;18066;52.106;5.534;2023-08-06T01:25:22;11.13;;;6.03;;
18296;SDS011;18066;52.106;5.534;2023-08-06T01:27:56;8.90;;;5.95;;
18296;SDS011;18066;52.106;5.534;2023-08-06T01:30:31;9.52;;;5.47;;
18296;SDS011;18066;52.106;5.534;2023-08-06T01:33:03;8.70;;;5.72;;
18296;SDS011;18066;52.106;5.534;2023-08-06T01:35:33;12.05;;;6.15;;
18296;SDS011;18066;52.106;5.534;2023-08-06T01:38:01;11.32;;;5.97;;
18296;SDS011;18066;52.106;5.534;2023-08-06T01:40:29;9.18;;;5.63;;
18296;SDS011;18066;52.106;5.534;2023-08-06T01:42:57;12.55;;;5.70;;
18296;SDS011;18066;52.106;5.534;2023-08-06T01:45:24;10.43;;;6.15;;
18296;SDS011;18066;52.106;5.534;2023-08-06T01:47:51;8.95;;;6.50;;
18296;SDS011;18066;52.106;5.534;2023-08-06T01:50:18;8.50;;;5.85;;
18296;SDS011;18066;52.106;5.534;2023-08-06T01:52:47;9.07;;;6.38;;
18296;SDS011;18066;52.106;5.534;2023-08-06T01:55:14;13.13;;;7.13;;
18296;SDS011;18066;52.106;5.534;2023-08-06T01:57:41;9.40;;;6.30;;
18296;SDS011;18066;52.106;5.534;2023-08-06T02:00:08;14.13;;;7.07;;
18296;SDS011;18066;52.106;5.534;2023-08-06T02:02:36;10.32;;;7.28;;
18296;SDS011;18066;52.106;5.534;2023-08-06T02:05:03;13.50;;;7.13;;
18296;SDS011;18066;52.106;5.534;2023-08-06T02:07:31;10.88;;;7.55;;
18296;SDS011;18066;52.106;5.534;2023-08-06T02:09:59;13.60;;;7.25;;
18296;SDS011;18066;52.106;5.534;2023-08-06T02:12:27;9.00;;;6.60;;
18296;SDS011;18066;52.106;5.534;2023-08-06T02:14:53;10.93;;;7.50;;
18296;SDS011;18066;52.106;5.534;2023-08-06T02:17:20;11.30;;;7.28;;
18296;SDS011;18066;52.106;5.534;2023-08-06T02:19:48;12.00;;;7.50;;
18296;SDS011;18066;52.106;5.534;2023-08-06T02:22:14;10.27;;;7.10;;
18296;SDS011;18066;52.106;5.534;2023-08-06T02:24:42;10.43;;;7.18;;
18296;SDS011;18066;52.106;5.534;2023-08-06T02:27:10;8.18;;;6.22;;
18296;SDS011;18066;52.106;5.534;2023-08-06T02:29:39;10.85;;;7.55;;
18296;SDS011;18066;52.106;5.534;2023-08-06T02:32:07;10.13;;;6.95;;
18296;SDS011;18066;52.106;5.534;2023-08-06T02:34:34;9.75;;;6.57;;
18296;SDS011;18066;52.106;5.534;2023-08-06T02:37:01;9.10;;;6.63;;
18296;SDS011;18066;52.106;5.534;2023-08-06T02:39:28;9.52;;;7.20;;
18296;SDS011;18066;52.106;5.534;2023-08-06T02:41:55;11.48;;;6.43;;
18296;SDS011;18066;52.106;5.534;2023-08-06T02:44:23;10.02;;;6.85;;
18296;SDS011;18066;52.106;5.534;2023-08-06T02:46:56;12.02;;;7.38;;
18296;SDS011;18066;52.106;5.534;2023-08-06T02:49:23;8.77;;;6.25;;
18296;SDS011;18066;52.106;5.534;2023-08-06T02:51:50;11.73;;;7.60;;
18296;SDS011;18066;52.106;5.534;2023-08-06T02:54:17;10.73;;;7.05;;
18296;SDS011;18066;52.106;5.534;2023-08-06T02:56:44;13.93;;;7.18;;
18296;SDS011;18066;52.106;5.534;2023-08-06T02:59:11;7.47;;;5.93;;
18296;SDS011;18066;52.106;5.534;2023-08-06T03:01:40;7.68;;;5.57;;
18296;SDS011;18066;52.106;5.534;2023-08-06T03:04:10;8.50;;;6.03;;
18296;SDS011;18066;52.106;5.534;2023-08-06T03:06:38;6.32;;;5.15;;
18296;SDS011;18066;52.106;5.534;2023-08-06T03:09:05;12.38;;;5.30;;
18296;SDS011;18066;52.106;5.534;2023-08-06T03:11:32;7.47;;;5.63;;
18296;SDS011;18066;52.106;5.534;2023-08-06T03:13:59;6.57;;;5.15;;
18296;SDS011;18066;52.106;5.534;2023-08-06T03:16:27;8.52;;;5.60;;
18296;SDS011;18066;52.106;5.534;2023-08-06T03:18:55;7.15;;;5.90;;
18296;SDS011;18066;52.106;5.534;2023-08-06T03:21:22;9.52;;;6.40;;
18296;SDS011;18066;52.106;5.534;2023-08-06T03:23:50;7.80;;;5.90;;
18296;SDS011;18066;52.106;5.534;2023-08-06T03:26:17;10.38;;;6.10;;
18296;SDS011;18066;52.106;5.534;2023-08-06T03:28:46;9.82;;;6.95;;
18296;SDS011;18066;52.106;5.534;2023-08-06T03:31:14;11.43;;;7.88;;
18296;SDS011;18066;52.106;5.534;2023-08-06T03:33:41;10.65;;;7.07;;
18296;SDS011;18066;52.106;5.534;2023-08-06T03:36:10;8.68;;;6.43;;
18296;SDS011;18066;52.106;5.534;2023-08-06T03:38:39;9.43;;;6.47;;
18296;SDS011;18066;52.106;5.534;2023-08-06T03:41:06;10.68;;;7.85;;
18296;SDS011;18066;52.106;5.534;2023-08-06T03:43:33;10.63;;;7.90;;
18296;SDS011;18066;52.106;5.534;2023-08-06T03:46:00;11.70;;;7.93;;
18296;SDS011;18066;52.106;5.534;2023-08-06T03:48:27;11.02;;;8.07;;
18296;SDS011;18066;52.106;5.534;2023-08-06T03:50:54;12.15;;;8.38;;
18296;SDS011;18066;52.106;5.534;2023-08-06T03:53:23;12.57;;;8.45;;
18296;SDS011;18066;52.106;5.534;2023-08-06T03:55:50;10.38;;;8.18;;
18296;SDS011;18066;52.106;5.534;2023-08-06T03:58:17;10.52;;;6.43;;
18296;SDS011;18066;52.106;5.534;2023-08-06T04:00:44;12.60;;;7.35;;
18296;SDS011;18066;52.106;5.534;2023-08-06T04:03:11;9.15;;;7.07;;
18296;SDS011;18066;52.106;5.534;2023-08-06T04:05:40;9.45;;;7.05;;
18296;SDS011;18066;52.106;5.534;2023-08-06T04:08:07;12.75;;;7.80;;
18296;SDS011;18066;52.106;5.534;2023-08-06T04:10:37;11.32;;;7.45;;
18296;SDS011;18066;52.106;5.534;2023-08-06T04:13:04;13.90;;;7.75;;
18296;SDS011;18066;52.106;5.534;2023-08-06T04:15:33;11.95;;;7.82;;
18296;SDS011;18066;52.106;5.534;2023-08-06T04:18:00;11.77;;;7.63;;
18296;SDS011;18066;52.106;5.534;2023-08-06T04:20:27;13.20;;;8.95;;
18296;SDS011;18066;52.106;5.534;2023-08-06T04:22:54;12.68;;;8.25;;
18296;SDS011;18066;52.106;5.534;2023-08-06T04:25:21;10.85;;;8.43;;
18296;SDS011;18066;52.106;5.534;2023-08-06T04:27:50;11.88;;;8.48;;
18296;SDS011;18066;52.106;5.534;2023-08-06T04:30:17;14.95;;;9.40;;
18296;SDS011;18066;52.106;5.534;2023-08-06T04:32:44;13.65;;;8.73;;
18296;SDS011;18066;52.106;5.534;2023-08-06T04:35:11;12.32;;;9.00;;
18296;SDS011;18066;52.106;5.534;2023-08-06T04:37:38;11.27;;;8.80;;
18296;SDS011;18066;52.106;5.534;2023-08-06T04:40:08;13.00;;;9.45;;
18296;SDS011;18066;52.106;5.534;2023-08-06T04:42:35;14.38;;;10.60;;
18296;SDS011;18066;52.106;5.534;2023-08-06T04:45:06;16.75;;;9.40;;
18296;SDS011;18066;52.106;5.534;2023-08-06T04:47:36;18.73;;;11.30;;
18296;SDS011;18066;52.106;5.534;2023-08-06T04:50:05;15.02;;;10.05;;
18296;SDS011;18066;52.106;5.534;2023-08-06T04:52:34;13.23;;;9.30;;
18296;SDS011;18066;52.106;5.534;2023-08-06T04:55:03;14.45;;;9.80;;
18296;SDS011;18066;52.106;5.534;2023-08-06T04:57:31;15.55;;;11.05;;
18296;SDS011;18066;52.106;5.534;2023-08-06T05:00:00;15.68;;;9.82;;
18296;SDS011;18066;52.106;5.534;2023-08-06T05:02:29;12.55;;;8.98;;
18296;SDS011;18066;52.106;5.534;2023-08-06T05:04:59;14.07;;;10.23;;
18296;SDS011;18066;52.106;5.534;2023-08-06T05:07:30;14.75;;;10.38;;
18296;SDS011;18066;52.106;5.534;2023-08-06T05:10:03;14.38;;;10.40;;
18296;SDS011;18066;52.106;5.534;2023-08-06T05:12:30;13.88;;;9.77;;
18296;SDS011;18066;52.106;5.534;2023-08-06T05:14:57;18.17;;;10.85;;
18296;SDS011;18066;52.106;5.534;2023-08-06T05:17:24;16.02;;;11.10;;
18296;SDS011;18066;52.106;5.534;2023-08-06T05:19:52;13.02;;;10.13;;
18296;SDS011;18066;52.106;5.534;2023-08-06T05:22:19;15.65;;;11.02;;
18296;SDS011;18066;52.106;5.534;2023-08-06T05:24:46;14.15;;;9.90;;
18296;SDS011;18066;52.106;5.534;2023-08-06T05:27:13;16.95;;;11.25;;
18296;SDS011;18066;52.106;5.534;2023-08-06T05:29:40;16.90;;;10.88;;
18296;SDS011;18066;52.106;5.534;2023-08-06T05:32:07;15.25;;;10.05;;
18296;SDS011;18066;52.106;5.534;2023-08-06T05:34:35;16.52;;;10.27;;
18296;SDS011;18066;52.106;5.534;2023-08-06T05:37:03;15.02;;;10.85;;
18296;SDS011;18066;52.106;5.534;2023-08-06T05:39:31;15.35;;;10.23;;
18296;SDS011;18066;52.106;5.534;2023-08-06T05:41:58;12.35;;;9.27;;
18296;SDS011;18066;52.106;5.534;2023-08-06T05:44:25;13.98;;;10.52;;
18296;SDS011;18066;52.106;5.534;2023-08-06T05:46:52;15.63;;;11.32;;
18296;SDS011;18066;52.106;5.534;2023-08-06T05:49:19;15.35;;;10.82;;
18296;SDS011;18066;52.106;5.534;2023-08-06T05:51:46;13.02;;;9.25;;
18296;SDS011;18066;52.106;5.534;2023-08-06T05:54:14;15.77;;;11.15;;
18296;SDS011;18066;52.106;5.534;2023-08-06T05:56:41;13.95;;;10.35;;
18296;SDS011;18066;52.106;5.534;2023-08-06T05:59:08;14.52;;;9.25;;
18296;SDS011;18066;52.106;5.534;2023-08-06T06:01:35;15.30;;;10.75;;
18296;SDS011;18066;52.106;5.534;2023-08-06T06:04:02;14.68;;;9.50;;
18296;SDS011;18066;52.106;5.534;2023-08-06T06:06:29;15.40;;;11.27;;
18296;SDS011;18066;52.106;5.534;2023-08-06T06:08:56;15.68;;;11.50;;
18296;SDS011;18066;52.106;5.534;2023-08-06T06:11:25;22.50;;;11.40;;
18296;SDS011;18066;52.106;5.534;2023-08-06T06:13:52;16.05;;;10.80;;
18296;SDS011;18066;52.106;5.534;2023-08-06T06:16:19;15.63;;;10.40;;
18296;SDS011;18066;52.106;5.534;2023-08-06T06:18:46;14.77;;;10.18;;
18296;SDS011;18066;52.106;5.534;2023-08-06T06:21:13;16.40;;;10.90;;
18296;SDS011;18066;52.106;5.534;2023-08-06T06:23:40;12.43;;;9.02;;
18296;SDS011;18066;52.106;5.534;2023-08-06T06:26:07;18.75;;;11.13;;
18296;SDS011;18066;52.106;5.534;2023-08-06T06:28:36;17.30;;;10.75;;
18296;SDS011;18066;52.106;5.534;2023-08-06T06:31:06;15.60;;;10.57;;
18296;SDS011;18066;52.106;5.534;2023-08-06T06:33:36;14.15;;;9.35;;
18296;SDS011;18066;52.106;5.534;2023-08-06T06:36:08;12.13;;;9.55;;
18296;SDS011;18066;52.106;5.534;2023-08-06T06:38:37;12.27;;;8.70;;
18296;SDS011;18066;52.106;5.534;2023-08-06T06:41:07;13.18;;;9.20;;
18296;SDS011;18066;52.106;5.534;2023-08-06T06:43:38;12.10;;;9.55;;
18296;SDS011;18066;52.106;5.534;2023-08-06T06:46:05;12.45;;;8.73;;
18296;SDS011;18066;52.106;5.534;2023-08-06T06:48:32;13.43;;;9.52;;
18296;SDS011;18066;52.106;5.534;2023-08-06T06:51:03;14.60;;;10.15;;
18296;SDS011;18066;52.106;5.534;2023-08-06T06:53:35;13.13;;;9.25;;
18296;SDS011;18066;52.106;5.534;2023-08-06T06:56:06;13.85;;;9.63;;
18296;SDS011;18066;52.106;5.534;2023-08-06T06:58:54;12.27;;;9.52;;
18296;SDS011;18066;52.106;5.534;2023-08-06T07:01:26;11.35;;;9.20;;
18296;SDS011;18066;52.106;5.534;2023-08-06T07:04:00;12.27;;;9.10;;
18296;SDS011;18066;52.106;5.534;2023-08-06T07:06:41;10.95;;;8.38;;
18296;SDS011;18066;52.106;5.534;2023-08-06T07:09:32;12.65;;;8.95;;
18296;SDS011;18066;52.106;5.534;2023-08-06T07:12:17;13.90;;;9.77;;
18296;SDS011;18066;52.106;5.534;2023-08-06T07:15:55;13.48;;;9.95;;
18296;SDS011;18066;52.106;5.534;2023-08-06T07:22:22;11.70;;;8.90;;
18296;SDS011;18066;52.106;5.534;2023-08-06T07:25:01;9.52;;;7.15;;
18296;SDS011;18066;52.106;5.534;2023-08-06T07:27:43;11.50;;;7.60;;
18296;SDS011;18066;52.106;5.534;2023-08-06T07:30:15;9.38;;;6.93;;
18296;SDS011;18066;52.106;5.534;2023-08-06T07:35:51;8.52;;;6.70;;
18296;SDS011;18066;52.106;5.534;2023-08-06T07:38:33;10.15;;;7.55;;
18296;SDS011;18066;52.106;5.534;2023-08-06T07:41:32;11.30;;;8.27;;
18296;SDS011;18066;52.106;5.534;2023-08-06T07:44:10;10.95;;;7.50;;
18296;SDS011;18066;52.106;5.534;2023-08-06T07:46:59;10.68;;;7.50;;
18296;SDS011;18066;52.106;5.534;2023-08-06T07:49:32;10.20;;;7.55;;
18296;SDS011;18066;52.106;5.534;2023-08-06T07:52:01;11.43;;;8.50;;
18296;SDS011;18066;52.106;5.534;2023-08-06T07:54:33;10.95;;;7.72;;
18296;SDS011;18066;52.106;5.534;2023-08-06T07:57:02;9.90;;;8.00;;
18296;SDS011;18066;52.106;5.534;2023-08-06T07:59:29;9.73;;;7.18;;
18296;SDS011;18066;52.106;5.534;2023-08-06T08:01:59;10.18;;;8.52;;
18296;SDS011;18066;52.106;5.534;2023-08-06T08:04:35;11.18;;;7.95;;
18296;SDS011;18066;52.106;5.534;2023-08-06T08:07:05;11.07;;;8.57;;
18296;SDS011;18066;52.106;5.534;2023-08-06T08:09:35;12.25;;;8.55;;
18296;SDS011;18066;52.106;5.534;2023-08-06T08:12:06;11.93;;;8.82;;
18296;SDS011;18066;52.106;5.534;2023-08-06T08:14:46;11.93;;;9.48;;
18296;SDS011;18066;52.106;5.534;2023-08-06T08:17:36;16.27;;;10.38;;
18296;SDS011;18066;52.106;5.534;2023-08-06T08:20:22;12.50;;;8.85;;
18296;SDS011;18066;52.106;5.534;2023-08-06T08:22:50;11.82;;;9.30;;
18296;SDS011;18066;52.106;5.534;2023-08-06T08:25:26;13.10;;;9.15;;
18296;SDS011;18066;52.106;5.534;2023-08-06T08:27:56;14.00;;;9.75;;
18296;SDS011;18066;52.106;5.534;2023-08-06T08:30:36;13.40;;;10.30;;
18296;SDS011;18066;52.106;5.534;2023-08-06T08:33:14;13.27;;;9.65;;
18296;SDS011;18066;52.106;5.534;2023-08-06T08:35:43;12.38;;;8.38;;
18296;SDS011;18066;52.106;5.534;2023-08-06T08:38:16;15.90;;;10.32;;
18296;SDS011;18066;52.106;5.534;2023-08-06T08:40:49;16.77;;;10.50;;
18296;SDS011;18066;52.106;5.534;2023-08-06T08:43:19;16.85;;;10.88;;
18296;SDS011;18066;52.106;5.534;2023-08-06T08:46:04;17.30;;;11.32;;
18296;SDS011;18066;52.106;5.534;2023-08-06T08:49:28;18.77;;;10.98;;
18296;SDS011;18066;52.106;5.534;2023-08-06T09:24:22;2.55;;;1.42;;
18296;SDS011;18066;52.106;5.534;2023-08-06T09:37:40;3.05;;;1.75;;
18296;SDS011;18066;52.106;5.534;2023-08-06T10:37:39;3.88;;;2.72;;
18296;SDS011;18066;52.106;5.534;2023-08-06T11:39:07;5.22;;;2.63;;
18296;SDS011;18066;52.106;5.534;2023-08-06T11:41:45;3.35;;;2.83;;
18296;SDS011;18066;52.106;5.534;2023-08-06T14:46:36;5.32;;;2.53;;
18296;SDS011;18066;52.106;5.534;2023-08-06T14:49:38;7.65;;;2.40;;
18296;SDS011;18066;52.106;5.534;2023-08-06T14:56:45;4.90;;;2.17;;
18296;SDS011;18066;52.106;5.534;2023-08-06T15:44:39;3.03;;;0.90;;
18296;SDS011;18066;52.106;5.534;2023-08-06T16:07:43;1.33;;;0.55;;
18296;SDS011;18066;52.106;5.534;2023-08-06T16:10:34;4.85;;;0.73;;
18296;SDS011;18066;52.106;5.534;2023-08-06T16:14:25;1.60;;;0.43;;
18296;SDS011;18066;52.106;5.534;2023-08-06T16:18:23;5.70;;;0.63;;
18296;SDS011;18066;52.106;5.534;2023-08-06T16:21:00;1.65;;;0.60;;
18296;SDS011;18066;52.106;5.534;2023-08-06T17:39:40;2.28;;;0.60;;
18296;SDS011;18066;52.106;5.534;2023-08-06T18:22:55;4.07;;;1.08;;
18296;SDS011;18066;52.106;5.534;2023-08-06T18:25:35;8.55;;;1.15;;
18296;SDS011;18066;52.106;5.534;2023-08-06T18:28:23;4.35;;;0.80;;
18296;SDS011;18066;52.106;5.534;2023-08-06T18:30:53;4.95;;;1.05;;
18296;SDS011;18066;52.106;5.534;2023-08-06T18:37:00;5.38;;;1.13;;
18296;SDS011;18066;52.106;5.534;2023-08-06T18:39:29;2.63;;;0.82;;
18296;SDS011;18066;52.106;5.534;2023-08-06T18:41:59;6.93;;;1.30;;
18296;SDS011;18066;52.106;5.534;2023-08-06T18:44:26;3.25;;;0.82;;
18296;SDS011;18066;52.106;5.534;2023-08-06T18:46:54;7.30;;;1.15;;
18296;SDS011;18066;52.106;5.534;2023-08-06T18:49:21;6.35;;;0.95;;
18296;SDS011;18066;52.106;5.534;2023-08-06T18:51:48;3.78;;;1.08;;
18296;SDS011;18066;52.106;5.534;2023-08-06T18:54:15;2.70;;;0.70;;
18296;SDS011;18066;52.106;5.534;2023-08-06T18:56:44;3.55;;;0.82;;
18296;SDS011;18066;52.106;5.534;2023-08-06T18:59:11;4.60;;;0.80;;
18296;SDS011;18066;52.106;5.534;2023-08-06T19:01:39;2.75;;;0.75;;
18296;SDS011;18066;52.106;5.534;2023-08-06T19:04:09;8.13;;;0.88;;
18296;SDS011;18066;52.106;5.534;2023-08-06T19:06:36;3.42;;;1.02;;
18296;SDS011;18066;52.106;5.534;2023-08-06T19:09:03;2.88;;;0.70;;
18296;SDS011;18066;52.106;5.534;2023-08-06T19:11:30;7.68;;;0.70;;
18296;SDS011;18066;52.106;5.534;2023-08-06T19:14:01;2.70;;;0.60;;
18296;SDS011;18066;52.106;5.534;2023-08-06T19:16:28;0.93;;;0.70;;
18296;SDS011;18066;52.106;5.534;2023-08-06T19:20:03;4.03;;;0.40;;
18296;SDS011;18066;52.106;5.534;2023-08-06T19:22:23;1.25;;;0.40;;
18296;SDS011;18066;52.106;5.534;2023-08-06T19:24:52;6.90;;;0.70;;
18296;SDS011;18066;52.106;5.534;2023-08-06T19:37:46;1.70;;;1.00;;
18296;SDS011;18066;52.106;5.534;2023-08-06T19:40:35;3.38;;;0.75;;
18296;SDS011;18066;52.106;5.534;2023-08-06T19:43:27;4.30;;;0.75;;
18296;SDS011;18066;52.106;5.534;2023-08-06T19:52:46;5.43;;;1.10;;
18296;SDS011;18066;52.106;5.534;2023-08-06T20:11:47;1.27;;;0.60;;
18296;SDS011;18066;52.106;5.534;2023-08-06T20:14:38;4.22;;;1.15;;
18296;SDS011;18066;52.106;5.534;2023-08-06T20:21:47;5.25;;;0.98;;
18296;SDS011;18066;52.106;5.534;2023-08-06T21:27:49;2.50;;;0.50;;
18296;SDS011;18066;52.106;5.534;2023-08-06T21:34:23;3.03;;;0.63;;
18296;SDS011;18066;52.106;5.534;2023-08-06T21:37:19;11.48;;;1.27;;
18296;SDS011;18066;52.106;5.534;2023-08-06T22:12:23;4.07;;;0.93;;
18296;SDS011;18066;52.106;5.534;2023-08-06T22:19:28;3.58;;;0.90;;
18296;SDS011;18066;52.106;5.534;2023-08-06T22:25:37;5.03;;;1.48;;
18296;SDS011;18066;52.106;5.534;2023-08-06T22:29:14;7.45;;;1.23;;
18296;SDS011;18066;52.106;5.534;2023-08-06T22:38:32;8.02;;;1.38;;
18296;SDS011;18066;52.106;5.534;2023-08-06T23:13:28;11.48;;;1.85;;
18296;SDS011;18066;52.106;5.534;2023-08-06T23:58:10;6.50;;;1.10;;
18296;SDS011;18066;52.106;5.534;2023-08-06T23:58:46;2.95;;;1.10;;
